ADDS METAR Data INFO
IDs: Format: Raw Decoded Include TAF

Data at: 0135 UTC 20 Feb 2018

KM19 200056Z AUTO 10004KT 10SM 18/16 A2999 RMK AO2 SLP160 T01780161 $
KM19 192356Z AUTO 17006KT 10SM 19/17 A2999 RMK AO2 SLP160 T01940167 10222 20194 53007 TSNO $
KM19 192256Z AUTO 19008KT 10SM 22/16 A2998 RMK AO2 SLP157 T02170161 $
KM19 192156Z AUTO 19017G22KT 10SM 22/16 A2997 RMK AO2 SLP152 T02170161 $
KM19 192056Z AUTO 19017G22KT 10SM 22/16 A2997 RMK AO2 SLP152 T02170161 56017 $
KM19 191956Z AUTO 18016KT 10SM 21/16 A2997 RMK AO2 SLP154 T02110161 $
KM19 191856Z AUTO 19013G23KT 10SM 21/16 A2999 RMK AO2 SLP161 T02110161 $
KM19 191756Z AUTO 20021G25KT 10SM 21/16 A3002 RMK AO2 SLP171 T02060161 10206 20144 58005 $
KM19 191656Z AUTO 19014KT 10SM 19/17 A3004 RMK AO2 SLP177 T01940167 $
KM19 191556Z AUTO 19008KT 10SM 17/16 A3005 RMK AO2 SLP182 T01720161 $
KM19 191456Z AUTO 16012KT 10SM 16/15 A3004 RMK AO2 SLP177 T01610150 50015 $
KM19 191356Z AUTO 17012KT 8SM 14/14 A3004 RMK AO2 SLP180 T01440144 $
KM19 191256Z AUTO 17015KT 8SM 14/14 A3002 RMK AO2 SLP172 T01440139 $
KM19 191156Z AUTO 17014KT 10SM 14/14 A2999 RMK AO2 SLP162 60000 T01440139 10144 20106 55004 $
KM19 191056Z AUTO 17017KT 10SM 14/13 A2998 RMK AO2 SLP158 T01390133 TSNO $
KM19 190956Z AUTO 17018KT 10SM 13/13 A2999 RMK AO2 SLP162 T01330133 $
KM19 190856Z AUTO 17014KT 6SM BR 13/13 A3000 RMK AO2 SLP166 60000 T01330133 58004 $
KM19 190853Z AUTO 18014KT 5SM BR 13/13 A3001 RMK AO2 $
KM19 190845Z AUTO 17013KT 2SM BR 13/13 A3001 RMK AO2 $
KM19 190839Z AUTO 17011KT 1SM BR 13/13 A3001 RMK AO2 $
KM19 190756Z AUTO 13005KT 1/2SM FG 11/11 A3002 RMK AO2 RAE24 SLP171 P0000 T01110111 $
KM19 190733Z AUTO 14005KT 1/2SM FG 11/11 A3002 RMK AO2 RAE24 P0000 $
KM19 190722Z AUTO 15005KT 3/4SM -RA BR 11/11 A3002 RMK AO2 P0000 $
KM19 190710Z AUTO 16005KT 1SM -RA BR 11/11 A3002 RMK AO2 P0000 $
KM19 190703Z AUTO 16006KT 1 1/4SM -RA BR 11/11 A3002 RMK AO2 P0000 $
KM19 190656Z AUTO 15007KT 1SM -RA BR 11/11 A3002 RMK AO2 SLP171 P0000 T01110111 $
KM19 190637Z AUTO 16007KT 3/4SM -RA BR 11/11 A3002 RMK AO2 P0000 $
KM19 190603Z AUTO 17006KT 1/2SM -RA FG 11/11 A3003 RMK AO2 P0000 $
KM19 190556Z AUTO 18006KT 3/4SM -RA BR 11/11 A3003 RMK AO2 SLP174 P0000 60000 T01060106 10106 20094 401221011 56006 $
KM19 190544Z AUTO 18008KT 3/4SM -RA BR 11/11 A3003 RMK AO2 P0000 $
KM19 190536Z AUTO 18009KT 1SM -RA BR 11/11 A3003 RMK AO2 P0000 $
KM19 190521Z AUTO 18010KT 1 3/4SM -RA BR 11/11 A3003 RMK AO2 P0000 $
KM19 190514Z AUTO 18010KT 2SM -RA BR 11/11 A3003 RMK AO2 P0000 $
KM19 190456Z AUTO 18012KT 1 3/4SM -RA BR 11/11 A3003 RMK AO2 RAB06 SLP177 P0000 T01060106 $
KM19 190451Z AUTO 17011KT 1 3/4SM -RA BR 11/10 A3003 RMK AO2 RAB06 P0000 $
KM19 190427Z AUTO 17009KT 2SM -RA BR 10/10 A3003 RMK AO2 RAB06 P0000 $
KM19 190356Z AUTO 18009KT 1 1/2SM BR 10/10 A3004 RMK AO2 SLP180 T01000100 $
KM19 190335Z AUTO 18009KT 2 1/2SM BR 10/10 A3005 RMK AO2 $
KM19 190256Z AUTO 18011KT 9SM 10/09 A3005 RMK AO2 SLP181 60000 T01000094 56008 $
KM19 190156Z AUTO 18009KT 4SM BR 09/09 A3005 RMK AO2 SLP182 T00940094 $
KM19 190056Z AUTO 17009KT 10SM 09/09 A3005 RMK AO2 RAE00 SLP184 P0000 T00940089 $
KM19 182356Z AUTO 17005KT 10SM -RA 09/08 A3007 RMK AO2 RAB27 SLP189 P0000 60000 T00940083 10122 20094 58014 $
KM19 182256Z AUTO 17013KT 10SM 10/08 A3008 RMK AO2 SLP194 T01000078 $
KM19 182156Z AUTO 18013KT 10SM 11/07 A3010 RMK AO2 SLP198 T01110067 TSNO $
KM19 182056Z AUTO 17011KT 10SM 12/06 A3011 RMK AO2 SLP202 T01170056 56034 $
KM19 181956Z AUTO 15010KT 7SM 12/04 A3012 RMK AO2 SLP207 T01170044 $
KM19 181856Z AUTO 13008KT 10SM 12/04 A3017 RMK AO2 SLP223 T01170044 $
KM19 181756Z AUTO 11007KT 10SM 10/04 A3021 RMK AO2 SLP237 60000 T01000039 10100 21011 58026 $
KM19 181656Z AUTO 13011KT 10SM 08/03 A3026 RMK AO2 SLP253 T00830028 $
KM19 181556Z AUTO 12012KT 10SM 07/04 A3027 RMK AO2 SLP257 T00720039 $
KM19 181456Z AUTO 13006KT 3SM BR 04/04 A3029 RMK AO2 RAE43UPB20E28 SLP262 P0000 60000 T00390039 55006 $
KM19 181445Z AUTO 12006KT 2SM BR 04/03 A3029 RMK AO2 RAE43UPB20E28 P0000 $
KM19 181439Z AUTO 11007KT 1SM -RA BR 03/03 A3029 RMK AO2 UPB20E28 P0000 $
KM19 181418Z AUTO 11006KT 1/2SM -RA FG 03/03 A3029 RMK AO2 P0000 $
KM19 181356Z AUTO 10005KT M1/4SM -RA FG 02/02 A3028 RMK AO2 UPB1257E06RAB06 SLP262 P0000 T00220022 $